40.0°F
Current conditions from King Hill
Updated every 5 minutes
 
  Thursday April 24, 2014

Station Historical Data
Daily Summary for April 28, 2012 Units:  Both    English   Metric
« Previous Day
Next Day »
Daily Weekly Monthly Yearly Custom
  High: Low: Average:
Temperature: 45.9 °F /  7.7 °C 27.0 °F /  -2.8 °C 35.1 °F /  1.7 °C
Dew Point: 22.7 °F /  -5.2 °C 15.3 °F /  -9.3 °C 19 °F /  -7.2 °C
Humidity: 75% 33% 54%
Wind Speed: 12.0mph /  19.3km/h - 5mph /  8km/h
Wind Gust: 22.0mph /  35.4km/h - -
Wind- - NW
Pressure: 30.16 in /  1021.2 hPa 30.06 in /  1017.8 hPa -
Precipitation: 0.00 in /  0 mm    
Historical Graphs
 
 
Tabular Data for April 28, 2012
Time Temperature Dew Point Pressure Wind Wind Speed Wind Gust Humidity Daily Rainfall
00:04 28.7 °F /  -1.8 °C 20.5 °F /  -6.4 °C 30.07in /  1018.2hPa NW 8.0mph /  12.9km/h 18.0mph /  29km/h 71% 0.00in /  0mm
00:09 28.5 °F /  -1.9 °C 21.0 °F /  -6.1 °C 30.07in /  1018.2hPa NW 10.0mph /  16.1km/h 20.0mph /  32.2km/h 73% 0.00in /  0mm
00:14 28.2 °F /  -2.1 °C 21.0 °F /  -6.1 °C 30.07in /  1018.2hPa NW 6.0mph /  9.7km/h 20.0mph /  32.2km/h 74% 0.00in /  0mm
00:19 28.1 °F /  -2.2 °C 21.2 °F /  -6 °C 30.07in /  1018.2hPa NW 6.0mph /  9.7km/h 13.0mph /  20.9km/h 75% 0.00in /  0mm
00:24 28.2 °F /  -2.1 °C 21.0 °F /  -6.1 °C 30.07in /  1018.2hPa NW 8.0mph /  12.9km/h 17.0mph /  27.4km/h 74% 0.00in /  0mm
00:29 28.3 °F /  -2.1 °C 21.1 °F /  -6.1 °C 30.07in /  1018.2hPa NW 7.0mph /  11.3km/h 17.0mph /  27.4km/h 74% 0.00in /  0mm
00:39 28.3 °F /  -2.1 °C 20.8 °F /  -6.2 °C 30.07in /  1018.2hPa NNW 7.0mph /  11.3km/h 21.0mph /  33.8km/h 73% 0.00in /  0mm
00:44 28.3 °F /  -2.1 °C 20.8 °F /  -6.2 °C 30.07in /  1018.2hPa NNW 6.0mph /  9.7km/h 19.0mph /  30.6km/h 73% 0.00in /  0mm
00:49 28.2 °F /  -2.1 °C 20.3 °F /  -6.5 °C 30.07in /  1018.2hPa NW 11.0mph /  17.7km/h 20.0mph /  32.2km/h 72% 0.00in /  0mm
00:59 28.3 °F /  -2.1 °C 20.4 °F /  -6.4 °C 30.08in /  1018.5hPa NW 7.0mph /  11.3km/h 18.0mph /  29km/h 72% 0.00in /  0mm
01:04 28.3 °F /  -2.1 °C 20.4 °F /  -6.4 °C 30.07in /  1018.2hPa NW 8.0mph /  12.9km/h 16.0mph /  25.7km/h 72% 0.00in /  0mm
01:09 28.3 °F /  -2.1 °C 20.1 °F /  -6.6 °C 30.07in /  1018.2hPa WNW 12.0mph /  19.3km/h 21.0mph /  33.8km/h 71% 0.00in /  0mm
01:14 28.2 °F /  -2.1 °C 20.0 °F /  -6.7 °C 30.07in /  1018.2hPa NW 5.0mph /  8km/h 21.0mph /  33.8km/h 71% 0.00in /  0mm
01:19 28.2 °F /  -2.1 °C 20.0 °F /  -6.7 °C 30.07in /  1018.2hPa NW 5.0mph /  8km/h 15.0mph /  24.1km/h 71% 0.00in /  0mm
01:24 28.2 °F /  -2.1 °C 20.0 °F /  -6.7 °C 30.07in /  1018.2hPa NW 6.0mph /  9.7km/h 14.0mph /  22.5km/h 71% 0.00in /  0mm
01:29 28.2 °F /  -2.1 °C 19.7 °F /  -6.8 °C 30.07in /  1018.2hPa NW 11.0mph /  17.7km/h 19.0mph /  30.6km/h 70% 0.00in /  0mm
01:34 28.3 °F /  -2.1 °C 19.8 °F /  -6.8 °C 30.07in /  1018.2hPa NW 9.0mph /  14.5km/h 19.0mph /  30.6km/h 70% 0.00in /  0mm
01:39 28.3 °F /  -2.1 °C 19.8 °F /  -6.8 °C 30.07in /  1018.2hPa NW 9.0mph /  14.5km/h 20.0mph /  32.2km/h 70% 0.00in /  0mm
01:44 28.3 °F /  -2.1 °C 19.8 °F /  -6.8 °C 30.07in /  1018.2hPa NW 8.0mph /  12.9km/h 20.0mph /  32.2km/h 70% 0.00in /  0mm
01:49 28.3 °F /  -2.1 °C 19.8 °F /  -6.8 °C 30.07in /  1018.2hPa WNW 5.0mph /  8km/h 14.0mph /  22.5km/h 70% 0.00in /  0mm
01:59 28.3 °F /  -2.1 °C 19.8 °F /  -6.8 °C 30.07in /  1018.2hPa WNW 5.0mph /  8km/h 15.0mph /  24.1km/h 70% 0.00in /  0mm
02:04 28.3 °F /  -2.1 °C 19.8 °F /  -6.8 °C 30.07in /  1018.2hPa NW 5.0mph /  8km/h 15.0mph /  24.1km/h 70% 0.00in /  0mm
02:09 28.3 °F /  -2.1 °C 19.4 °F /  -7 °C 30.06in /  1017.8hPa NW 10.0mph /  16.1km/h 18.0mph /  29km/h 69% 0.00in /  0mm
02:14 28.4 °F /  -2 °C 19.5 °F /  -6.9 °C 30.06in /  1017.8hPa WNW 2.0mph /  3.2km/h 18.0mph /  29km/h 69% 0.00in /  0mm
02:19 28.5 °F /  -1.9 °C 19.6 °F /  -6.9 °C 30.06in /  1017.8hPa NW 6.0mph /  9.7km/h 14.0mph /  22.5km/h 69% 0.00in /  0mm
02:24 28.5 °F /  -1.9 °C 19.6 °F /  -6.9 °C 30.06in /  1017.8hPa WNW 5.0mph /  8km/h 14.0mph /  22.5km/h 69% 0.00in /  0mm
02:29 28.4 °F /  -2 °C 19.5 °F /  -6.9 °C 30.06in /  1017.8hPa NW 8.0mph /  12.9km/h 12.0mph /  19.3km/h 69% 0.00in /  0mm
02:34 28.5 °F /  -1.9 °C 19.6 °F /  -6.9 °C 30.06in /  1017.8hPa NW 6.0mph /  9.7km/h 16.0mph /  25.7km/h 69% 0.00in /  0mm
02:39 28.5 °F /  -1.9 °C 20.0 °F /  -6.7 °C 30.06in /  1017.8hPa NW 2.0mph /  3.2km/h 16.0mph /  25.7km/h 70% 0.00in /  0mm
02:44 28.4 °F /  -2 °C 19.9 °F /  -6.7 °C 30.06in /  1017.8hPa NNW 3.0mph /  4.8km/h 12.0mph /  19.3km/h 70% 0.00in /  0mm
02:49 28.4 °F /  -2 °C 19.9 °F /  -6.7 °C 30.06in /  1017.8hPa NW 3.0mph /  4.8km/h 12.0mph /  19.3km/h 70% 0.00in /  0mm
02:59 28.3 °F /  -2.1 °C 20.1 °F /  -6.6 °C 30.06in /  1017.8hPa NW 5.0mph /  8km/h 13.0mph /  20.9km/h 71% 0.00in /  0mm
03:04 28.3 °F /  -2.1 °C 20.1 °F /  -6.6 °C 30.06in /  1017.8hPa NW 5.0mph /  8km/h 13.0mph /  20.9km/h 71% 0.00in /  0mm
03:09 28.2 °F /  -2.1 °C 20.0 °F /  -6.7 °C 30.07in /  1018.2hPa WNW 4.0mph /  6.4km/h 10.0mph /  16.1km/h 71% 0.00in /  0mm
03:14 28.2 °F /  -2.1 °C 20.0 °F /  -6.7 °C 30.07in /  1018.2hPa NNW 3.0mph /  4.8km/h 14.0mph /  22.5km/h 71% 0.00in /  0mm
03:19 28.2 °F /  -2.1 °C 20.3 °F /  -6.5 °C 30.07in /  1018.2hPa NNW 7.0mph /  11.3km/h 15.0mph /  24.1km/h 72% 0.00in /  0mm
03:24 28.2 °F /  -2.1 °C 20.3 °F /  -6.5 °C 30.07in /  1018.2hPa NW 6.0mph /  9.7km/h 15.0mph /  24.1km/h 72% 0.00in /  0mm
03:29 28.1 °F /  -2.2 °C 19.9 °F /  -6.7 °C 30.07in /  1018.2hPa NW 7.0mph /  11.3km/h 15.0mph /  24.1km/h 71% 0.00in /  0mm
03:34 28.1 °F /  -2.2 °C 19.9 °F /  -6.7 °C 30.07in /  1018.2hPa WNW 6.0mph /  9.7km/h 15.0mph /  24.1km/h 71% 0.00in /  0mm
03:39 28.1 °F /  -2.2 °C 19.9 °F /  -6.7 °C 30.07in /  1018.2hPa NW 4.0mph /  6.4km/h 13.0mph /  20.9km/h 71% 0.00in /  0mm
03:44 28.1 °F /  -2.2 °C 19.9 °F /  -6.7 °C 30.07in /  1018.2hPa NW 3.0mph /  4.8km/h 13.0mph /  20.9km/h 71% 0.00in /  0mm
03:49 28.1 °F /  -2.2 °C 19.6 °F /  -6.9 °C 30.07in /  1018.2hPa NW 5.0mph /  8km/h 13.0mph /  20.9km/h 70% 0.00in /  0mm
03:54 28.1 °F /  -2.2 °C 18.9 °F /  -7.3 °C 30.07in /  1018.2hPa NW 10.0mph /  16.1km/h 14.0mph /  22.5km/h 68% 0.00in /  0mm
03:59 28.1 °F /  -2.2 °C 18.9 °F /  -7.3 °C 30.07in /  1018.2hPa NW 5.0mph /  8km/h 14.0mph /  22.5km/h 68% 0.00in /  0mm
04:04 28.0 °F /  -2.2 °C 18.8 °F /  -7.3 °C 30.07in /  1018.2hPa NNW 2.0mph /  3.2km/h 13.0mph /  20.9km/h 68% 0.00in /  0mm
04:09 28.0 °F /  -2.2 °C 18.5 °F /  -7.5 °C 30.07in /  1018.2hPa NW 9.0mph /  14.5km/h 17.0mph /  27.4km/h 67% 0.00in /  0mm
04:14 28.1 °F /  -2.2 °C 18.6 °F /  -7.4 °C 30.08in /  1018.5hPa NNW 6.0mph /  9.7km/h 17.0mph /  27.4km/h 67% 0.00in /  0mm
04:19 28.1 °F /  -2.2 °C 18.9 °F /  -7.3 °C 30.08in /  1018.5hPa NNW 10.0mph /  16.1km/h 15.0mph /  24.1km/h 68% 0.00in /  0mm
04:24 28.1 °F /  -2.2 °C 18.9 °F /  -7.3 °C 30.08in /  1018.5hPa NW 6.0mph /  9.7km/h 17.0mph /  27.4km/h 68% 0.00in /  0mm
04:34 28.0 °F /  -2.2 °C 19.1 °F /  -7.2 °C 30.08in /  1018.5hPa NW 4.0mph /  6.4km/h 16.0mph /  25.7km/h 69% 0.00in /  0mm
04:44 27.9 °F /  -2.3 °C 19.1 °F /  -7.2 °C 30.09in /  1018.8hPa NW 6.0mph /  9.7km/h 13.0mph /  20.9km/h 69% 0.00in /  0mm
04:49 27.9 °F /  -2.3 °C 19.4 °F /  -7 °C 30.09in /  1018.8hPa NW 7.0mph /  11.3km/h 13.0mph /  20.9km/h 70% 0.00in /  0mm
04:54 27.8 °F /  -2.3 °C 19.3 °F /  -7.1 °C 30.09in /  1018.8hPa NW 4.0mph /  6.4km/h 13.0mph /  20.9km/h 70% 0.00in /  0mm
04:59 27.8 °F /  -2.3 °C 19.3 °F /  -7.1 °C 30.09in /  1018.8hPa NW 7.0mph /  11.3km/h 15.0mph /  24.1km/h 70% 0.00in /  0mm
05:04 27.7 °F /  -2.4 °C 19.2 °F /  -7.1 °C 30.09in /  1018.8hPa NW 6.0mph /  9.7km/h 16.0mph /  25.7km/h 70% 0.00in /  0mm
05:09 27.7 °F /  -2.4 °C 19.5 °F /  -6.9 °C 30.09in /  1018.8hPa NW 4.0mph /  6.4km/h 16.0mph /  25.7km/h 71% 0.00in /  0mm
05:14 27.6 °F /  -2.4 °C 19.1 °F /  -7.2 °C 30.09in /  1018.8hPa NW 4.0mph /  6.4km/h 10.0mph /  16.1km/h 70% 0.00in /  0mm
05:19 27.6 °F /  -2.4 °C 19.1 °F /  -7.2 °C 30.10in /  1019.2hPa NW 9.0mph /  14.5km/h 15.0mph /  24.1km/h 70% 0.00in /  0mm
05:24 27.6 °F /  -2.4 °C 19.1 °F /  -7.2 °C 30.10in /  1019.2hPa NW 7.0mph /  11.3km/h 16.0mph /  25.7km/h 70% 0.00in /  0mm
05:29 27.5 °F /  -2.5 °C 19.0 °F /  -7.2 °C 30.10in /  1019.2hPa WNW 10.0mph /  16.1km/h 16.0mph /  25.7km/h 70% 0.00in /  0mm
05:34 27.4 °F /  -2.6 °C 18.9 °F /  -7.3 °C 30.11in /  1019.5hPa NW 7.0mph /  11.3km/h 16.0mph /  25.7km/h 70% 0.00in /  0mm
05:39 27.3 °F /  -2.6 °C 19.1 °F /  -7.2 °C 30.11in /  1019.5hPa NW 8.0mph /  12.9km/h 16.0mph /  25.7km/h 71% 0.00in /  0mm
05:44 27.3 °F /  -2.6 °C 19.1 °F /  -7.2 °C 30.11in /  1019.5hPa NW 7.0mph /  11.3km/h 16.0mph /  25.7km/h 71% 0.00in /  0mm
05:49 27.2 °F /  -2.7 °C 19.0 °F /  -7.2 °C 30.11in /  1019.5hPa NNW 5.0mph /  8km/h 16.0mph /  25.7km/h 71% 0.00in /  0mm
05:54 27.1 °F /  -2.7 °C 19.3 °F /  -7.1 °C 30.11in /  1019.5hPa NW 7.0mph /  11.3km/h 19.0mph /  30.6km/h 72% 0.00in /  0mm
05:59 27.0 °F /  -2.8 °C 19.2 °F /  -7.1 °C 30.11in /  1019.5hPa NW 5.0mph /  8km/h 19.0mph /  30.6km/h 72% 0.00in /  0mm
06:04 27.0 °F /  -2.8 °C 19.2 °F /  -7.1 °C 30.12in /  1019.9hPa NNW 5.0mph /  8km/h 14.0mph /  22.5km/h 72% 0.00in /  0mm
06:09 27.1 °F /  -2.7 °C 19.6 °F /  -6.9 °C 30.11in /  1019.5hPa NNW 2.0mph /  3.2km/h 14.0mph /  22.5km/h 73% 0.00in /  0mm
06:14 27.1 °F /  -2.7 °C 19.3 °F /  -7.1 °C 30.11in /  1019.5hPa NW 5.0mph /  8km/h 11.0mph /  17.7km/h 72% 0.00in /  0mm
06:19 27.1 °F /  -2.7 °C 19.3 °F /  -7.1 °C 30.12in /  1019.9hPa Calm   11.0mph /  17.7km/h 72% 0.00in /  0mm
06:24 27.2 °F /  -2.7 °C 19.0 °F /  -7.2 °C 30.11in /  1019.5hPa NW 2.0mph /  3.2km/h 10.0mph /  16.1km/h 71% 0.00in /  0mm
06:34 27.4 °F /  -2.6 °C 19.2 °F /  -7.1 °C 30.12in /  1019.9hPa NW 2.0mph /  3.2km/h 11.0mph /  17.7km/h 71% 0.00in /  0mm
06:39 27.4 °F /  -2.6 °C 19.6 °F /  -6.9 °C 30.13in /  1020.2hPa NNW 6.0mph /  9.7km/h 11.0mph /  17.7km/h 72% 0.00in /  0mm
06:44 27.3 °F /  -2.6 °C 19.1 °F /  -7.2 °C 30.13in /  1020.2hPa NW 3.0mph /  4.8km/h 11.0mph /  17.7km/h 71% 0.00in /  0mm
06:49 27.3 °F /  -2.6 °C 19.1 °F /  -7.2 °C 30.13in /  1020.2hPa NW 4.0mph /  6.4km/h 11.0mph /  17.7km/h 71% 0.00in /  0mm
06:59 27.3 °F /  -2.6 °C 19.1 °F /  -7.2 °C 30.13in /  1020.2hPa NW 6.0mph /  9.7km/h 13.0mph /  20.9km/h 71% 0.00in /  0mm
07:04 27.3 °F /  -2.6 °C 18.8 °F /  -7.3 °C 30.13in /  1020.2hPa NW 1.0mph /  1.6km/h 13.0mph /  20.9km/h 70% 0.00in /  0mm
07:09 27.4 °F /  -2.6 °C 18.9 °F /  -7.3 °C 30.13in /  1020.2hPa NNW 4.0mph /  6.4km/h 12.0mph /  19.3km/h 70% 0.00in /  0mm
07:14 27.5 °F /  -2.5 °C 18.7 °F /  -7.4 °C 30.14in /  1020.5hPa NW 3.0mph /  4.8km/h 10.0mph /  16.1km/h 69% 0.00in /  0mm
07:19 27.6 °F /  -2.4 °C 18.8 °F /  -7.3 °C 30.14in /  1020.5hPa NW 5.0mph /  8km/h 13.0mph /  20.9km/h 69% 0.00in /  0mm
07:24 27.7 °F /  -2.4 °C 18.9 °F /  -7.3 °C 30.13in /  1020.2hPa NW 6.0mph /  9.7km/h 13.0mph /  20.9km/h 69% 0.00in /  0mm
07:29 27.8 °F /  -2.3 °C 19.0 °F /  -7.2 °C 30.14in /  1020.5hPa WNW 3.0mph /  4.8km/h 12.0mph /  19.3km/h 69% 0.00in /  0mm
07:34 27.8 °F /  -2.3 °C 19.3 °F /  -7.1 °C 30.14in /  1020.5hPa NNW 2.0mph /  3.2km/h 9.0mph /  14.5km/h 70% 0.00in /  0mm
07:39 27.8 °F /  -2.3 °C 19.0 °F /  -7.2 °C 30.13in /  1020.2hPa NNW 7.0mph /  11.3km/h 13.0mph /  20.9km/h 69% 0.00in /  0mm
07:44 27.8 °F /  -2.3 °C 19.3 °F /  -7.1 °C 30.14in /  1020.5hPa NW 5.0mph /  8km/h 13.0mph /  20.9km/h 70% 0.00in /  0mm
07:49 27.8 °F /  -2.3 °C 19.0 °F /  -7.2 °C 30.14in /  1020.5hPa NW 5.0mph /  8km/h 12.0mph /  19.3km/h 69% 0.00in /  0mm
07:54 27.9 °F /  -2.3 °C 19.4 °F /  -7 °C 30.14in /  1020.5hPa NW 1.0mph /  1.6km/h 12.0mph /  19.3km/h 70% 0.00in /  0mm
07:59 28.0 °F /  -2.2 °C 19.1 °F /  -7.2 °C 30.14in /  1020.5hPa NW 7.0mph /  11.3km/h 11.0mph /  17.7km/h 69% 0.00in /  0mm
08:04 28.0 °F /  -2.2 °C 19.1 °F /  -7.2 °C 30.14in /  1020.5hPa NNW 3.0mph /  4.8km/h 11.0mph /  17.7km/h 69% 0.00in /  0mm
08:09 28.1 °F /  -2.2 °C 19.2 °F /  -7.1 °C 30.14in /  1020.5hPa NNW 4.0mph /  6.4km/h 14.0mph /  22.5km/h 69% 0.00in /  0mm
08:14 28.2 °F /  -2.1 °C 19.7 °F /  -6.8 °C 30.14in /  1020.5hPa NNW 2.0mph /  3.2km/h 14.0mph /  22.5km/h 70% 0.00in /  0mm
08:19 28.4 °F /  -2 °C 20.2 °F /  -6.6 °C 30.14in /  1020.5hPa NNW 1.0mph /  1.6km/h 10.0mph /  16.1km/h 71% 0.00in /  0mm
08:24 28.6 °F /  -1.9 °C 19.7 °F /  -6.8 °C 30.14in /  1020.5hPa NW 5.0mph /  8km/h 9.0mph /  14.5km/h 69% 0.00in /  0mm
08:29 28.7 °F /  -1.8 °C 19.5 °F /  -6.9 °C 30.15in /  1020.9hPa NW 5.0mph /  8km/h 9.0mph /  14.5km/h 68% 0.00in /  0mm
08:34 28.9 °F /  -1.7 °C 19.7 °F /  -6.8 °C 30.15in /  1020.9hPa NNW 1.0mph /  1.6km/h 10.0mph /  16.1km/h 68% 0.00in /  0mm
08:39 29.2 °F /  -1.6 °C 19.6 °F /  -6.9 °C 30.14in /  1020.5hPa NW 3.0mph /  4.8km/h 10.0mph /  16.1km/h 67% 0.00in /  0mm
08:44 29.3 °F /  -1.5 °C 19.4 °F /  -7 °C 30.15in /  1020.9hPa NW 8.0mph /  12.9km/h 16.0mph /  25.7km/h 66% 0.00in /  0mm
08:49 29.3 °F /  -1.5 °C 19.7 °F /  -6.8 °C 30.15in /  1020.9hPa NW 1.0mph /  1.6km/h 16.0mph /  25.7km/h 67% 0.00in /  0mm
08:54 29.6 °F /  -1.3 °C 19.6 °F /  -6.9 °C 30.15in /  1020.9hPa NW 7.0mph /  11.3km/h 18.0mph /  29km/h 66% 0.00in /  0mm
08:59 29.6 °F /  -1.3 °C 20.0 °F /  -6.7 °C 30.15in /  1020.9hPa NNW 2.0mph /  3.2km/h 18.0mph /  29km/h 67% 0.00in /  0mm
09:04 30.0 °F /  -1.1 °C 20.0 °F /  -6.7 °C 30.15in /  1020.9hPa NNW 2.0mph /  3.2km/h 11.0mph /  17.7km/h 66% 0.00in /  0mm
09:09 30.5 °F /  -0.8 °C 20.1 °F /  -6.6 °C 30.15in /  1020.9hPa NNW 5.0mph /  8km/h 12.0mph /  19.3km/h 65% 0.00in /  0mm
09:14 30.9 °F /  -0.6 °C 20.5 °F /  -6.4 °C 30.15in /  1020.9hPa NW 5.0mph /  8km/h 12.0mph /  19.3km/h 65% 0.00in /  0mm
09:19 31.0 °F /  -0.6 °C 20.6 °F /  -6.3 °C 30.15in /  1020.9hPa WNW 5.0mph /  8km/h 17.0mph /  27.4km/h 65% 0.00in /  0mm
09:24 31.0 °F /  -0.6 °C 20.3 °F /  -6.5 °C 30.15in /  1020.9hPa WNW 8.0mph /  12.9km/h 17.0mph /  27.4km/h 64% 0.00in /  0mm
09:29 31.6 °F /  -0.2 °C 20.1 °F /  -6.6 °C 30.16in /  1021.2hPa NW 8.0mph /  12.9km/h 17.0mph /  27.4km/h 62% 0.00in /  0mm
09:34 31.7 °F /  -0.2 °C 20.2 °F /  -6.6 °C 30.16in /  1021.2hPa NW 7.0mph /  11.3km/h 17.0mph /  27.4km/h 62% 0.00in /  0mm
09:39 32.0 °F /  0 °C 20.8 °F /  -6.2 °C 30.16in /  1021.2hPa NW 8.0mph /  12.9km/h 19.0mph /  30.6km/h 63% 0.00in /  0mm
09:44 31.8 °F /  -0.1 °C 20.3 °F /  -6.5 °C 30.15in /  1020.9hPa WNW 2.0mph /  3.2km/h 19.0mph /  30.6km/h 62% 0.00in /  0mm
09:49 32.5 °F /  0.3 °C 22.0 °F /  -5.6 °C 30.15in /  1020.9hPa NW 7.0mph /  11.3km/h 15.0mph /  24.1km/h 65% 0.00in /  0mm
09:59 33.5 °F /  0.8 °C 21.9 °F /  -5.6 °C 30.16in /  1021.2hPa NW 6.0mph /  9.7km/h 20.0mph /  32.2km/h 62% 0.00in /  0mm
10:04 33.4 °F /  0.8 °C 20.2 °F /  -6.6 °C 30.15in /  1020.9hPa NNW 6.0mph /  9.7km/h 20.0mph /  32.2km/h 58% 0.00in /  0mm
10:09 33.3 °F /  0.7 °C 20.5 °F /  -6.4 °C 30.15in /  1020.9hPa WNW 9.0mph /  14.5km/h 17.0mph /  27.4km/h 59% 0.00in /  0mm
10:14 33.2 °F /  0.7 °C 20.0 °F /  -6.7 °C 30.16in /  1021.2hPa NW 9.0mph /  14.5km/h 17.0mph /  27.4km/h 58% 0.00in /  0mm
10:19 33.3 °F /  0.7 °C 20.1 °F /  -6.6 °C 30.15in /  1020.9hPa NW 7.0mph /  11.3km/h 16.0mph /  25.7km/h 58% 0.00in /  0mm
10:24 33.5 °F /  0.8 °C 20.3 °F /  -6.5 °C 30.15in /  1020.9hPa WNW 8.0mph /  12.9km/h 15.0mph /  24.1km/h 58% 0.00in /  0mm
10:34 34.2 °F /  1.2 °C 21.4 °F /  -5.9 °C 30.15in /  1020.9hPa WNW 6.0mph /  9.7km/h 17.0mph /  27.4km/h 59% 0.00in /  0mm
10:39 34.4 °F /  1.3 °C 21.6 °F /  -5.8 °C 30.15in /  1020.9hPa NW 8.0mph /  12.9km/h 17.0mph /  27.4km/h 59% 0.00in /  0mm
10:44 34.6 °F /  1.4 °C 20.5 °F /  -6.4 °C 30.15in /  1020.9hPa WNW 9.0mph /  14.5km/h 15.0mph /  24.1km/h 56% 0.00in /  0mm
10:49 34.8 °F /  1.6 °C 21.5 °F /  -5.8 °C 30.15in /  1020.9hPa NW 5.0mph /  8km/h 15.0mph /  24.1km/h 58% 0.00in /  0mm
10:54 35.3 °F /  1.8 °C 21.2 °F /  -6 °C 30.15in /  1020.9hPa NNW 7.0mph /  11.3km/h 14.0mph /  22.5km/h 56% 0.00in /  0mm
10:59 35.5 °F /  1.9 °C 20.5 °F /  -6.4 °C 30.15in /  1020.9hPa NW 6.0mph /  9.7km/h 14.0mph /  22.5km/h 54% 0.00in /  0mm
11:04 35.9 °F /  2.2 °C 21.7 °F /  -5.7 °C 30.15in /  1020.9hPa NW 8.0mph /  12.9km/h 14.0mph /  22.5km/h 56% 0.00in /  0mm
11:09 36.0 °F /  2.2 °C 20.1 °F /  -6.6 °C 30.15in /  1020.9hPa NW 7.0mph /  11.3km/h 14.0mph /  22.5km/h 52% 0.00in /  0mm
11:14 36.1 °F /  2.3 °C 20.2 °F /  -6.6 °C 30.15in /  1020.9hPa WNW 6.0mph /  9.7km/h 17.0mph /  27.4km/h 52% 0.00in /  0mm
11:19 36.0 °F /  2.2 °C 21.4 °F /  -5.9 °C 30.15in /  1020.9hPa WNW 6.0mph /  9.7km/h 17.0mph /  27.4km/h 55% 0.00in /  0mm
11:24 36.7 °F /  2.6 °C 21.6 °F /  -5.8 °C 30.14in /  1020.5hPa WNW 7.0mph /  11.3km/h 17.0mph /  27.4km/h 54% 0.00in /  0mm
11:29 36.6 °F /  2.6 °C 20.6 °F /  -6.3 °C 30.14in /  1020.5hPa NW 6.0mph /  9.7km/h 17.0mph /  27.4km/h 52% 0.00in /  0mm
11:34 36.9 °F /  2.7 °C 20.0 °F /  -6.7 °C 30.14in /  1020.5hPa WNW 7.0mph /  11.3km/h 17.0mph /  27.4km/h 50% 0.00in /  0mm
11:39 37.2 °F /  2.9 °C 21.6 °F /  -5.8 °C 30.15in /  1020.9hPa WNW 3.0mph /  4.8km/h 17.0mph /  27.4km/h 53% 0.00in /  0mm
11:44 36.9 °F /  2.7 °C 21.8 °F /  -5.7 °C 30.15in /  1020.9hPa NW 4.0mph /  6.4km/h 15.0mph /  24.1km/h 54% 0.00in /  0mm
11:49 37.1 °F /  2.8 °C 20.6 °F /  -6.3 °C 30.15in /  1020.9hPa WNW 8.0mph /  12.9km/h 17.0mph /  27.4km/h 51% 0.00in /  0mm
11:54 37.0 °F /  2.8 °C 20.5 °F /  -6.4 °C 30.15in /  1020.9hPa WNW 4.0mph /  6.4km/h 17.0mph /  27.4km/h 51% 0.00in /  0mm
11:59 37.4 °F /  3 °C 20.0 °F /  -6.7 °C 30.14in /  1020.5hPa WNW 8.0mph /  12.9km/h 15.0mph /  24.1km/h 49% 0.00in /  0mm
12:04 37.8 °F /  3.2 °C 21.7 °F /  -5.7 °C 30.14in /  1020.5hPa WNW 7.0mph /  11.3km/h 13.0mph /  20.9km/h 52% 0.00in /  0mm
12:09 38.0 °F /  3.3 °C 21.9 °F /  -5.6 °C 30.14in /  1020.5hPa NW 3.0mph /  4.8km/h 15.0mph /  24.1km/h 52% 0.00in /  0mm
12:14 39.0 °F /  3.9 °C 21.0 °F /  -6.1 °C 30.14in /  1020.5hPa NW 7.0mph /  11.3km/h 16.0mph /  25.7km/h 48% 0.00in /  0mm
12:19 39.3 °F /  4.1 °C 21.7 °F /  -5.7 °C 30.14in /  1020.5hPa NNW 8.0mph /  12.9km/h 16.0mph /  25.7km/h 49% 0.00in /  0mm
12:24 39.0 °F /  3.9 °C 20.5 °F /  -6.4 °C 30.14in /  1020.5hPa NW 5.0mph /  8km/h 15.0mph /  24.1km/h 47% 0.00in /  0mm
12:29 39.1 °F /  3.9 °C 21.1 °F /  -6.1 °C 30.14in /  1020.5hPa NW 6.0mph /  9.7km/h 15.0mph /  24.1km/h 48% 0.00in /  0mm
12:34 39.3 °F /  4.1 °C 22.7 °F /  -5.2 °C 30.14in /  1020.5hPa NW 7.0mph /  11.3km/h 15.0mph /  24.1km/h 51% 0.00in /  0mm
12:39 39.6 °F /  4.2 °C 22.5 °F /  -5.3 °C 30.14in /  1020.5hPa NW 5.0mph /  8km/h 18.0mph /  29km/h 50% 0.00in /  0mm
12:44 39.7 °F /  4.3 °C 21.1 °F /  -6.1 °C 30.14in /  1020.5hPa NW 6.0mph /  9.7km/h 18.0mph /  29km/h 47% 0.00in /  0mm
12:49 39.8 °F /  4.3 °C 21.7 °F /  -5.7 °C 30.13in /  1020.2hPa WSW 3.0mph /  4.8km/h 13.0mph /  20.9km/h 48% 0.00in /  0mm
12:54 39.7 °F /  4.3 °C 19.6 °F /  -6.9 °C 30.13in /  1020.2hPa WNW 5.0mph /  8km/h 14.0mph /  22.5km/h 44% 0.00in /  0mm
12:59 39.5 °F /  4.2 °C 18.8 °F /  -7.3 °C 30.13in /  1020.2hPa WNW 10.0mph /  16.1km/h 18.0mph /  29km/h 43% 0.00in /  0mm
13:04 39.8 °F /  4.3 °C 20.2 °F /  -6.6 °C 30.13in /  1020.2hPa West 5.0mph /  8km/h 18.0mph /  29km/h 45% 0.00in /  0mm
13:09 40.0 °F /  4.4 °C 18.8 °F /  -7.3 °C 30.13in /  1020.2hPa NW 7.0mph /  11.3km/h 16.0mph /  25.7km/h 42% 0.00in /  0mm
13:14 40.1 °F /  4.5 °C 20.5 °F /  -6.4 °C 30.13in /  1020.2hPa WNW 8.0mph /  12.9km/h 14.0mph /  22.5km/h 45% 0.00in /  0mm
13:19 40.2 °F /  4.6 °C 20.5 °F /  -6.4 °C 30.13in /  1020.2hPa NW 5.0mph /  8km/h 13.0mph /  20.9km/h 45% 0.00in /  0mm
13:24 40.4 °F /  4.7 °C 21.3 °F /  -5.9 °C 30.12in /  1019.9hPa WNW 7.0mph /  11.3km/h 15.0mph /  24.1km/h 46% 0.00in /  0mm
13:34 41.0 °F /  5 °C 20.8 °F /  -6.2 °C 30.12in /  1019.9hPa NW 6.0mph /  9.7km/h 16.0mph /  25.7km/h 44% 0.00in /  0mm
13:39 41.6 °F /  5.3 °C 21.8 °F /  -5.7 °C 30.12in /  1019.9hPa NW 4.0mph /  6.4km/h 16.0mph /  25.7km/h 45% 0.00in /  0mm
13:49 41.6 °F /  5.3 °C 19.1 °F /  -7.2 °C 30.12in /  1019.9hPa WNW 6.0mph /  9.7km/h 14.0mph /  22.5km/h 40% 0.00in /  0mm
13:54 42.1 °F /  5.6 °C 20.7 °F /  -6.3 °C 30.12in /  1019.9hPa NNW 4.0mph /  6.4km/h 12.0mph /  19.3km/h 42% 0.00in /  0mm
13:59 41.6 °F /  5.3 °C 17.9 °F /  -7.8 °C 30.12in /  1019.9hPa NW 6.0mph /  9.7km/h 12.0mph /  19.3km/h 38% 0.00in /  0mm
14:04 41.6 °F /  5.3 °C 21.3 °F /  -5.9 °C 30.12in /  1019.9hPa NW 4.0mph /  6.4km/h 12.0mph /  19.3km/h 44% 0.00in /  0mm
14:09 42.7 °F /  5.9 °C 21.2 °F /  -6 °C 30.11in /  1019.5hPa WNW 6.0mph /  9.7km/h 14.0mph /  22.5km/h 42% 0.00in /  0mm
14:14 43.1 °F /  6.2 °C 21.0 °F /  -6.1 °C 30.12in /  1019.9hPa NNW 4.0mph /  6.4km/h 14.0mph /  22.5km/h 41% 0.00in /  0mm
14:19 42.7 °F /  5.9 °C 17.6 °F /  -8 °C 30.12in /  1019.9hPa West 5.0mph /  8km/h 13.0mph /  20.9km/h 36% 0.00in /  0mm
14:24 42.7 °F /  5.9 °C 19.5 °F /  -6.9 °C 30.11in /  1019.5hPa NW 1.0mph /  1.6km/h 12.0mph /  19.3km/h 39% 0.00in /  0mm
14:29 43.3 °F /  6.3 °C 19.4 °F /  -7 °C 30.12in /  1019.9hPa NW 7.0mph /  11.3km/h 12.0mph /  19.3km/h 38% 0.00in /  0mm
14:34 43.9 °F /  6.6 °C 19.9 °F /  -6.7 °C 30.11in /  1019.5hPa North 5.0mph /  8km/h 13.0mph /  20.9km/h 38% 0.00in /  0mm
14:39 43.4 °F /  6.3 °C 18.9 °F /  -7.3 °C 30.11in /  1019.5hPa NW 7.0mph /  11.3km/h 14.0mph /  22.5km/h 37% 0.00in /  0mm
14:44 43.1 °F /  6.2 °C 20.4 °F /  -6.4 °C 30.11in /  1019.5hPa NNW 2.0mph /  3.2km/h 14.0mph /  22.5km/h 40% 0.00in /  0mm
14:49 43.4 °F /  6.3 °C 20.1 °F /  -6.6 °C 30.11in /  1019.5hPa NW 6.0mph /  9.7km/h 11.0mph /  17.7km/h 39% 0.00in /  0mm
14:54 44.0 °F /  6.7 °C 18.8 °F /  -7.3 °C 30.11in /  1019.5hPa NW 8.0mph /  12.9km/h 16.0mph /  25.7km/h 36% 0.00in /  0mm
14:59 43.4 °F /  6.3 °C 17.6 °F /  -8 °C 30.11in /  1019.5hPa WNW 9.0mph /  14.5km/h 16.0mph /  25.7km/h 35% 0.00in /  0mm
15:04 43.0 °F /  6.1 °C 17.9 °F /  -7.8 °C 30.10in /  1019.2hPa WNW 6.0mph /  9.7km/h 14.0mph /  22.5km/h 36% 0.00in /  0mm
15:09 43.3 °F /  6.3 °C 20.0 °F /  -6.7 °C 30.10in /  1019.2hPa WNW 7.0mph /  11.3km/h 14.0mph /  22.5km/h 39% 0.00in /  0mm
15:14 44.0 °F /  6.7 °C 19.4 °F /  -7 °C 30.10in /  1019.2hPa WNW 7.0mph /  11.3km/h 13.0mph /  20.9km/h 37% 0.00in /  0mm
15:19 44.1 °F /  6.7 °C 19.5 °F /  -6.9 °C 30.10in /  1019.2hPa WNW 4.0mph /  6.4km/h 13.0mph /  20.9km/h 37% 0.00in /  0mm
15:24 44.2 °F /  6.8 °C 20.8 °F /  -6.2 °C 30.10in /  1019.2hPa NW 5.0mph /  8km/h 13.0mph /  20.9km/h 39% 0.00in /  0mm
15:29 45.2 °F /  7.3 °C 21.1 °F /  -6.1 °C 30.10in /  1019.2hPa NNW 3.0mph /  4.8km/h 11.0mph /  17.7km/h 38% 0.00in /  0mm
15:34 45.3 °F /  7.4 °C 19.9 °F /  -6.7 °C 30.10in /  1019.2hPa NW 4.0mph /  6.4km/h 10.0mph /  16.1km/h 36% 0.00in /  0mm
15:39 45.2 °F /  7.3 °C 18.5 °F /  -7.5 °C 30.09in /  1018.8hPa NW 3.0mph /  4.8km/h 11.0mph /  17.7km/h 34% 0.00in /  0mm
15:44 45.3 °F /  7.4 °C 19.2 °F /  -7.1 °C 30.09in /  1018.8hPa WNW 4.0mph /  6.4km/h 11.0mph /  17.7km/h 35% 0.00in /  0mm
15:49 45.4 °F /  7.4 °C 20.6 °F /  -6.3 °C 30.09in /  1018.8hPa North 4.0mph /  6.4km/h 10.0mph /  16.1km/h 37% 0.00in /  0mm
15:54 45.4 °F /  7.4 °C 20.0 °F /  -6.7 °C 30.08in /  1018.5hPa NW 7.0mph /  11.3km/h 15.0mph /  24.1km/h 36% 0.00in /  0mm
15:59 45.0 °F /  7.2 °C 18.3 °F /  -7.6 °C 30.08in /  1018.5hPa WNW 5.0mph /  8km/h 15.0mph /  24.1km/h 34% 0.00in /  0mm
16:04 44.6 °F /  7 °C 18.0 °F /  -7.8 °C 30.08in /  1018.5hPa NW 6.0mph /  9.7km/h 12.0mph /  19.3km/h 34% 0.00in /  0mm
16:09 44.1 °F /  6.7 °C 18.2 °F /  -7.7 °C 30.08in /  1018.5hPa WNW 7.0mph /  11.3km/h 18.0mph /  29km/h 35% 0.00in /  0mm
16:14 44.1 °F /  6.7 °C 20.1 °F /  -6.6 °C 30.08in /  1018.5hPa NNW 2.0mph /  3.2km/h 18.0mph /  29km/h 38% 0.00in /  0mm
16:19 44.6 °F /  7 °C 18.0 °F /  -7.8 °C 30.08in /  1018.5hPa NNW 4.0mph /  6.4km/h 12.0mph /  19.3km/h 34% 0.00in /  0mm
16:24 44.2 °F /  6.8 °C 16.9 °F /  -8.4 °C 30.08in /  1018.5hPa WNW 5.0mph /  8km/h 22.0mph /  35.4km/h 33% 0.00in /  0mm
16:29 44.6 °F /  7 °C 18.6 °F /  -7.4 °C 30.08in /  1018.5hPa NNW 5.0mph /  8km/h 22.0mph /  35.4km/h 35% 0.00in /  0mm
16:34 44.7 °F /  7.1 °C 18.7 °F /  -7.4 °C 30.08in /  1018.5hPa NW 3.0mph /  4.8km/h 17.0mph /  27.4km/h 35% 0.00in /  0mm
16:39 45.3 °F /  7.4 °C 19.9 °F /  -6.7 °C 30.08in /  1018.5hPa NNW 4.0mph /  6.4km/h 17.0mph /  27.4km/h 36% 0.00in /  0mm
16:44 45.6 °F /  7.6 °C 19.5 °F /  -6.9 °C 30.08in /  1018.5hPa NNW 1.0mph /  1.6km/h 11.0mph /  17.7km/h 35% 0.00in /  0mm
16:49 45.6 °F /  7.6 °C 20.2 °F /  -6.6 °C 30.08in /  1018.5hPa NW 3.0mph /  4.8km/h 11.0mph /  17.7km/h 36% 0.00in /  0mm
16:54 45.8 °F /  7.7 °C 20.4 °F /  -6.4 °C 30.07in /  1018.2hPa North 2.0mph /  3.2km/h 11.0mph /  17.7km/h 36% 0.00in /  0mm
16:59 45.9 °F /  7.7 °C 19.8 °F /  -6.8 °C 30.08in /  1018.5hPa NNW 3.0mph /  4.8km/h 13.0mph /  20.9km/h 35% 0.00in /  0mm
17:04 45.3 °F /  7.4 °C 19.9 °F /  -6.7 °C 30.08in /  1018.5hPa NNW 1.0mph /  1.6km/h 13.0mph /  20.9km/h 36% 0.00in /  0mm
17:09 45.2 °F /  7.3 °C 19.2 °F /  -7.1 °C 30.08in /  1018.5hPa NNW 2.0mph /  3.2km/h 13.0mph /  20.9km/h 35% 0.00in /  0mm
17:14 45.5 °F /  7.5 °C 19.4 °F /  -7 °C 30.08in /  1018.5hPa NW 6.0mph /  9.7km/h 13.0mph /  20.9km/h 35% 0.00in /  0mm
17:19 45.6 °F /  7.6 °C 18.8 °F /  -7.3 °C 30.08in /  1018.5hPa NW 5.0mph /  8km/h 12.0mph /  19.3km/h 34% 0.00in /  0mm
17:24 45.4 °F /  7.4 °C 18.7 °F /  -7.4 °C 30.08in /  1018.5hPa NNW 6.0mph /  9.7km/h 15.0mph /  24.1km/h 34% 0.00in /  0mm
17:29 44.9 °F /  7.2 °C 18.2 °F /  -7.7 °C 30.08in /  1018.5hPa NW 7.0mph /  11.3km/h 15.0mph /  24.1km/h 34% 0.00in /  0mm
17:34 45.0 °F /  7.2 °C 19.0 °F /  -7.2 °C 30.08in /  1018.5hPa North 2.0mph /  3.2km/h 11.0mph /  17.7km/h 35% 0.00in /  0mm
17:39 44.6 °F /  7 °C 18.0 °F /  -7.8 °C 30.08in /  1018.5hPa NNW 5.0mph /  8km/h 16.0mph /  25.7km/h 34% 0.00in /  0mm
17:49 44.4 °F /  6.9 °C 19.1 °F /  -7.2 °C 30.08in /  1018.5hPa NNW 2.0mph /  3.2km/h 14.0mph /  22.5km/h 36% 0.00in /  0mm
17:54 44.4 °F /  6.9 °C 17.1 °F /  -8.3 °C 30.08in /  1018.5hPa NW 5.0mph /  8km/h 14.0mph /  22.5km/h 33% 0.00in /  0mm
17:59 44.1 °F /  6.7 °C 17.5 °F /  -8.1 °C 30.08in /  1018.5hPa NNW 5.0mph /  8km/h 11.0mph /  17.7km/h 34% 0.00in /  0mm
18:04 44.0 °F /  6.7 °C 17.4 °F /  -8.1 °C 30.08in /  1018.5hPa NW 8.0mph /  12.9km/h 13.0mph /  20.9km/h 34% 0.00in /  0mm
18:09 43.8 °F /  6.6 °C 17.9 °F /  -7.8 °C 30.08in /  1018.5hPa NW 5.0mph /  8km/h 13.0mph /  20.9km/h 35% 0.00in /  0mm
18:14 43.8 °F /  6.6 °C 17.2 °F /  -8.2 °C 30.08in /  1018.5hPa NNW 5.0mph /  8km/h 14.0mph /  22.5km/h 34% 0.00in /  0mm
18:19 43.9 °F /  6.6 °C 17.3 °F /  -8.2 °C 30.08in /  1018.5hPa NNW 3.0mph /  4.8km/h 14.0mph /  22.5km/h 34% 0.00in /  0mm
18:24 43.6 °F /  6.4 °C 17.1 °F /  -8.3 °C 30.08in /  1018.5hPa NNW 4.0mph /  6.4km/h 13.0mph /  20.9km/h 34% 0.00in /  0mm
18:29 43.6 °F /  6.4 °C 17.7 °F /  -7.9 °C 30.08in /  1018.5hPa NNW 3.0mph /  4.8km/h 17.0mph /  27.4km/h 35% 0.00in /  0mm
18:34 43.2 °F /  6.2 °C 16.7 °F /  -8.5 °C 30.08in /  1018.5hPa NW 5.0mph /  8km/h 17.0mph /  27.4km/h 34% 0.00in /  0mm
18:39 42.8 °F /  6 °C 15.7 °F /  -9.1 °C 30.08in /  1018.5hPa NNW 6.0mph /  9.7km/h 14.0mph /  22.5km/h 33% 0.00in /  0mm
18:44 42.7 °F /  5.9 °C 16.9 °F /  -8.4 °C 30.08in /  1018.5hPa NNW 4.0mph /  6.4km/h 14.0mph /  22.5km/h 35% 0.00in /  0mm
18:49 42.6 °F /  5.9 °C 16.9 °F /  -8.4 °C 30.08in /  1018.5hPa NW 4.0mph /  6.4km/h 14.0mph /  22.5km/h 35% 0.00in /  0mm
18:54 42.3 °F /  5.7 °C 15.9 °F /  -8.9 °C 30.08in /  1018.5hPa NW 2.0mph /  3.2km/h 10.0mph /  16.1km/h 34% 0.00in /  0mm
18:59 42.1 °F /  5.6 °C 16.4 °F /  -8.7 °C 30.08in /  1018.5hPa NW 4.0mph /  6.4km/h 10.0mph /  16.1km/h 35% 0.00in /  0mm
19:04 41.6 °F /  5.3 °C 15.3 °F /  -9.3 °C 30.08in /  1018.5hPa NNW 3.0mph /  4.8km/h 12.0mph /  19.3km/h 34% 0.00in /  0mm
19:09 41.3 °F /  5.2 °C 15.7 °F /  -9.1 °C 30.08in /  1018.5hPa NW 5.0mph /  8km/h 12.0mph /  19.3km/h 35% 0.00in /  0mm
19:14 41.1 °F /  5.1 °C 15.5 °F /  -9.2 °C 30.08in /  1018.5hPa NW 1.0mph /  1.6km/h 9.0mph /  14.5km/h 35% 0.00in /  0mm
19:19 40.9 °F /  4.9 °C 16.6 °F /  -8.6 °C 30.08in /  1018.5hPa NW 4.0mph /  6.4km/h 11.0mph /  17.7km/h 37% 0.00in /  0mm
19:24 40.5 °F /  4.7 °C 16.3 °F /  -8.7 °C 30.08in /  1018.5hPa NW 5.0mph /  8km/h 11.0mph /  17.7km/h 37% 0.00in /  0mm
19:29 40.3 °F /  4.6 °C 17.3 °F /  -8.2 °C 30.08in /  1018.5hPa NW 1.0mph /  1.6km/h 8.0mph /  12.9km/h 39% 0.00in /  0mm
19:34 39.8 °F /  4.3 °C 16.8 °F /  -8.4 °C 30.08in /  1018.5hPa NW 2.0mph /  3.2km/h 7.0mph /  11.3km/h 39% 0.00in /  0mm
19:39 39.4 °F /  4.1 °C 17.1 °F /  -8.3 °C 30.08in /  1018.5hPa NNW 1.0mph /  1.6km/h 6.0mph /  9.7km/h 40% 0.00in /  0mm
19:44 39.0 °F /  3.9 °C 16.7 °F /  -8.5 °C 30.08in /  1018.5hPa NW 4.0mph /  6.4km/h 8.0mph /  12.9km/h 40% 0.00in /  0mm
19:49 38.7 °F /  3.7 °C 17.0 °F /  -8.3 °C 30.08in /  1018.5hPa NW 1.0mph /  1.6km/h 8.0mph /  12.9km/h 41% 0.00in /  0mm
19:54 38.4 °F /  3.6 °C 16.7 °F /  -8.5 °C 30.08in /  1018.5hPa NW 3.0mph /  4.8km/h 9.0mph /  14.5km/h 41% 0.00in /  0mm
19:59 38.1 °F /  3.4 °C 16.5 °F /  -8.6 °C 30.08in /  1018.5hPa NW 3.0mph /  4.8km/h 9.0mph /  14.5km/h 41% 0.00in /  0mm
20:04 37.9 °F /  3.3 °C 16.3 °F /  -8.7 °C 30.09in /  1018.8hPa NW 5.0mph /  8km/h 10.0mph /  16.1km/h 41% 0.00in /  0mm
20:09 37.8 °F /  3.2 °C 16.8 °F /  -8.4 °C 30.09in /  1018.8hPa Calm   10.0mph /  16.1km/h 42% 0.00in /  0mm
20:14 37.7 °F /  3.2 °C 16.7 °F /  -8.5 °C 30.09in /  1018.8hPa WNW 2.0mph /  3.2km/h 9.0mph /  14.5km/h 42% 0.00in /  0mm
20:19 37.5 °F /  3.1 °C 15.9 °F /  -8.9 °C 30.09in /  1018.8hPa NW 4.0mph /  6.4km/h 8.0mph /  12.9km/h 41% 0.00in /  0mm
20:24 37.3 °F /  2.9 °C 16.3 °F /  -8.7 °C 30.09in /  1018.8hPa NNW 1.0mph /  1.6km/h 7.0mph /  11.3km/h 42% 0.00in /  0mm
20:29 37.1 °F /  2.8 °C 16.7 °F /  -8.5 °C 30.10in /  1019.2hPa NW 2.0mph /  3.2km/h 6.0mph /  9.7km/h 43% 0.00in /  0mm
20:34 37.0 °F /  2.8 °C 16.0 °F /  -8.9 °C 30.10in /  1019.2hPa Calm   7.0mph /  11.3km/h 42% 0.00in /  0mm
20:39 36.8 °F /  2.7 °C 15.8 °F /  -9 °C 30.10in /  1019.2hPa Calm   7.0mph /  11.3km/h 42% 0.00in /  0mm
20:44 36.6 °F /  2.6 °C 15.7 °F /  -9.1 °C 30.10in /  1019.2hPa NW 1.0mph /  1.6km/h 6.0mph /  9.7km/h 42% 0.00in /  0mm
20:49 36.6 °F /  2.6 °C 15.7 °F /  -9.1 °C 30.10in /  1019.2hPa NW 1.0mph /  1.6km/h 6.0mph /  9.7km/h 42% 0.00in /  0mm
20:54 36.5 °F /  2.5 °C 15.6 °F /  -9.1 °C 30.10in /  1019.2hPa Calm   5.0mph /  8km/h 42% 0.00in /  0mm
20:59 36.1 °F /  2.3 °C 16.3 °F /  -8.7 °C 30.10in /  1019.2hPa Calm   2.0mph /  3.2km/h 44% 0.00in /  0mm
21:04 35.7 °F /  2.1 °C 15.9 °F /  -8.9 °C 30.10in /  1019.2hPa Calm   2.0mph /  3.2km/h 44% 0.00in /  0mm
21:09 35.7 °F /  2.1 °C 16.4 °F /  -8.7 °C 30.10in /  1019.2hPa Calm   3.0mph /  4.8km/h 45% 0.00in /  0mm
21:14 35.7 °F /  2.1 °C 16.4 °F /  -8.7 °C 30.11in /  1019.5hPa Calm   3.0mph /  4.8km/h 45% 0.00in /  0mm
21:19 35.8 °F /  2.1 °C 16.5 °F /  -8.6 °C 30.11in /  1019.5hPa Calm   6.0mph /  9.7km/h 45% 0.00in /  0mm
21:24 36.0 °F /  2.2 °C 16.2 °F /  -8.8 °C 30.11in /  1019.5hPa WNW 1.0mph /  1.6km/h 6.0mph /  9.7km/h 44% 0.00in /  0mm
21:34 35.9 °F /  2.2 °C 16.6 °F /  -8.6 °C 30.10in /  1019.2hPa West 1.0mph /  1.6km/h 5.0mph /  8km/h 45% 0.00in /  0mm
21:44 35.9 °F /  2.2 °C 16.6 °F /  -8.6 °C 30.11in /  1019.5hPa West 3.0mph /  4.8km/h 8.0mph /  12.9km/h 45% 0.00in /  0mm
21:49 36.0 °F /  2.2 °C 16.2 °F /  -8.8 °C 30.11in /  1019.5hPa WNW 1.0mph /  1.6km/h 8.0mph /  12.9km/h 44% 0.00in /  0mm
21:54 36.1 °F /  2.3 °C 15.8 °F /  -9 °C 30.11in /  1019.5hPa WNW 3.0mph /  4.8km/h 6.0mph /  9.7km/h 43% 0.00in /  0mm
21:59 36.1 °F /  2.3 °C 15.8 °F /  -9 °C 30.11in /  1019.5hPa WNW 1.0mph /  1.6km/h 6.0mph /  9.7km/h 43% 0.00in /  0mm
22:04 36.0 °F /  2.2 °C 16.2 °F /  -8.8 °C 30.11in /  1019.5hPa Calm   5.0mph /  8km/h 44% 0.00in /  0mm
22:09 36.1 °F /  2.3 °C 15.8 °F /  -9 °C 30.11in /  1019.5hPa WNW 1.0mph /  1.6km/h 7.0mph /  11.3km/h 43% 0.00in /  0mm
22:14 36.3 °F /  2.4 °C 15.9 °F /  -8.9 °C 30.11in /  1019.5hPa WNW 3.0mph /  4.8km/h 7.0mph /  11.3km/h 43% 0.00in /  0mm
22:19 36.2 °F /  2.3 °C 16.9 °F /  -8.4 °C 30.11in /  1019.5hPa Calm   7.0mph /  11.3km/h 45% 0.00in /  0mm
22:24 35.6 °F /  2 °C 16.9 °F /  -8.4 °C 30.11in /  1019.5hPa WNW 1.0mph /  1.6km/h 6.0mph /  9.7km/h 46% 0.00in /  0mm
22:29 35.3 °F /  1.8 °C 17.1 °F /  -8.3 °C 30.10in /  1019.2hPa WNW 2.0mph /  3.2km/h 6.0mph /  9.7km/h 47% 0.00in /  0mm
22:34 35.3 °F /  1.8 °C 17.1 °F /  -8.3 °C 30.10in /  1019.2hPa WNW 1.0mph /  1.6km/h 6.0mph /  9.7km/h 47% 0.00in /  0mm
22:39 35.0 °F /  1.7 °C 17.3 °F /  -8.2 °C 30.10in /  1019.2hPa Calm   4.0mph /  6.4km/h 48% 0.00in /  0mm
22:49 34.7 °F /  1.5 °C 17.5 °F /  -8.1 °C 30.10in /  1019.2hPa Calm   4.0mph /  6.4km/h 49% 0.00in /  0mm
22:54 34.6 °F /  1.4 °C 17.4 °F /  -8.1 °C 30.10in /  1019.2hPa Calm   4.0mph /  6.4km/h 49% 0.00in /  0mm
22:59 34.6 °F /  1.4 °C 17.4 °F /  -8.1 °C 30.10in /  1019.2hPa Calm   3.0mph /  4.8km/h 49% 0.00in /  0mm
23:04 34.6 °F /  1.4 °C 17.4 °F /  -8.1 °C 30.10in /  1019.2hPa Calm   3.0mph /  4.8km/h 49% 0.00in /  0mm
23:09 34.5 °F /  1.4 °C 17.3 °F /  -8.2 °C 30.10in /  1019.2hPa WNW 1.0mph /  1.6km/h 4.0mph /  6.4km/h 49% 0.00in /  0mm
23:14 34.4 °F /  1.3 °C 16.7 °F /  -8.5 °C 30.10in /  1019.2hPa Calm   4.0mph /  6.4km/h 48% 0.00in /  0mm
23:19 34.5 °F /  1.4 °C 17.3 °F /  -8.2 °C 30.10in /  1019.2hPa Calm   4.0mph /  6.4km/h 49% 0.00in /  0mm
23:24 34.5 °F /  1.4 °C 16.8 °F /  -8.4 °C 30.10in /  1019.2hPa Calm   5.0mph /  8km/h 48% 0.00in /  0mm
23:29 34.6 °F /  1.4 °C 16.9 °F /  -8.4 °C 30.10in /  1019.2hPa Calm   5.0mph /  8km/h 48% 0.00in /  0mm
23:34 34.4 °F /  1.3 °C 16.7 °F /  -8.5 °C 30.10in /  1019.2hPa Calm   4.0mph /  6.4km/h 48% 0.00in /  0mm
23:39 34.4 °F /  1.3 °C 16.7 °F /  -8.5 °C 30.09in /  1018.8hPa Calm   4.0mph /  6.4km/h 48% 0.00in /  0mm
23:44 34.4 °F /  1.3 °C 16.7 °F /  -8.5 °C 30.09in /  1018.8hPa Calm   5.0mph /  8km/h 48% 0.00in /  0mm
23:49 34.4 °F /  1.3 °C 16.7 °F /  -8.5 °C 30.09in /  1018.8hPa West 1.0mph /  1.6km/h 5.0mph /  8km/h 48% 0.00in /  0mm
23:54 34.7 °F /  1.5 °C 16.0 °F /  -8.9 °C 30.09in /  1018.8hPa WSW 1.0mph /  1.6km/h 8.0mph /  12.9km/h 46% 0.00in /  0mm
23:59 34.7 °F /  1.5 °C 16.5 °F /  -8.6 °C 30.09in /  1018.8hPa Calm   8.0mph /  12.9km/h 47% 0.00in /  0mm
Westford Weather
Compliments of Weather Underground

 
 
Current Radar Loop:

Copyright © WestfordWeather.net 2007-2014. All rights reserved.